sensor_id;sensor_type;location;lat;lon;timestamp;P1;durP1;ratioP1;P2;durP2;ratioP2
76955;SDS011;65894;53.206;-6.108;2023-03-03T00:01:18;5.90;;;1.50;;
76955;SDS011;65894;53.206;-6.108;2023-03-03T00:03:44;7.35;;;1.35;;
76955;SDS011;65894;53.206;-6.108;2023-03-03T00:06:11;5.75;;;1.65;;
76955;SDS011;65894;53.206;-6.108;2023-03-03T00:08:38;6.80;;;1.48;;
76955;SDS011;65894;53.206;-6.108;2023-03-03T00:11:04;4.57;;;1.20;;
76955;SDS011;65894;53.206;-6.108;2023-03-03T00:13:32;4.95;;;1.65;;
76955;SDS011;65894;53.206;-6.108;2023-03-03T00:18:54;6.55;;;1.30;;
76955;SDS011;65894;53.206;-6.108;2023-03-03T00:21:27;6.07;;;1.23;;
76955;SDS011;65894;53.206;-6.108;2023-03-03T00:26:46;10.02;;;2.00;;
76955;SDS011;65894;53.206;-6.108;2023-03-03T00:29:30;6.22;;;1.20;;
76955;SDS011;65894;53.206;-6.108;2023-03-03T00:35:27;6.55;;;1.70;;
76955;SDS011;65894;53.206;-6.108;2023-03-03T00:37:55;6.30;;;1.30;;
76955;SDS011;65894;53.206;-6.108;2023-03-03T00:40:26;6.45;;;1.45;;
76955;SDS011;65894;53.206;-6.108;2023-03-03T00:43:12;3.33;;;1.30;;
76955;SDS011;65894;53.206;-6.108;2023-03-03T00:45:43;5.75;;;1.20;;
76955;SDS011;65894;53.206;-6.108;2023-03-03T00:51:01;5.60;;;1.45;;
76955;SDS011;65894;53.206;-6.108;2023-03-03T00:53:43;4.93;;;1.40;;
76955;SDS011;65894;53.206;-6.108;2023-03-03T00:56:08;5.18;;;1.20;;
76955;SDS011;65894;53.206;-6.108;2023-03-03T00:58:34;6.05;;;1.35;;
76955;SDS011;65894;53.206;-6.108;2023-03-03T01:01:00;4.43;;;1.38;;
76955;SDS011;65894;53.206;-6.108;2023-03-03T01:06:01;4.95;;;1.13;;
76955;SDS011;65894;53.206;-6.108;2023-03-03T01:08:27;6.38;;;1.13;;
76955;SDS011;65894;53.206;-6.108;2023-03-03T01:10:59;5.30;;;1.15;;
76955;SDS011;65894;53.206;-6.108;2023-03-03T01:13:33;4.97;;;1.08;;
76955;SDS011;65894;53.206;-6.108;2023-03-03T01:16:02;4.50;;;1.42;;
76955;SDS011;65894;53.206;-6.108;2023-03-03T01:18:28;4.50;;;1.40;;
76955;SDS011;65894;53.206;-6.108;2023-03-03T01:20:54;4.43;;;1.25;;
76955;SDS011;65894;53.206;-6.108;2023-03-03T01:23:20;3.85;;;1.08;;
76955;SDS011;65894;53.206;-6.108;2023-03-03T01:25:46;3.38;;;1.30;;
76955;SDS011;65894;53.206;-6.108;2023-03-03T01:28:11;4.55;;;0.98;;
76955;SDS011;65894;53.206;-6.108;2023-03-03T01:30:37;4.18;;;1.13;;
76955;SDS011;65894;53.206;-6.108;2023-03-03T01:33:02;5.40;;;1.00;;
76955;SDS011;65894;53.206;-6.108;2023-03-03T01:35:28;4.35;;;1.00;;
76955;SDS011;65894;53.206;-6.108;2023-03-03T01:37:54;4.97;;;1.10;;
76955;SDS011;65894;53.206;-6.108;2023-03-03T01:40:24;3.38;;;0.98;;
76955;SDS011;65894;53.206;-6.108;2023-03-03T01:42:51;5.18;;;1.33;;
76955;SDS011;65894;53.206;-6.108;2023-03-03T01:45:24;3.47;;;0.90;;
76955;SDS011;65894;53.206;-6.108;2023-03-03T01:48:17;3.00;;;1.15;;
76955;SDS011;65894;53.206;-6.108;2023-03-03T01:53:47;8.80;;;1.30;;
76955;SDS011;65894;53.206;-6.108;2023-03-03T01:56:17;12.98;;;2.03;;
76955;SDS011;65894;53.206;-6.108;2023-03-03T01:58:44;6.63;;;1.30;;
76955;SDS011;65894;53.206;-6.108;2023-03-03T02:01:14;8.43;;;1.00;;
76955;SDS011;65894;53.206;-6.108;2023-03-03T02:06:09;5.88;;;1.00;;
76955;SDS011;65894;53.206;-6.108;2023-03-03T02:08:43;7.22;;;1.00;;
76955;SDS011;65894;53.206;-6.108;2023-03-03T02:11:19;6.95;;;1.02;;
76955;SDS011;65894;53.206;-6.108;2023-03-03T02:13:46;6.78;;;1.20;;
76955;SDS011;65894;53.206;-6.108;2023-03-03T02:16:11;9.45;;;1.25;;
76955;SDS011;65894;53.206;-6.108;2023-03-03T02:18:37;8.20;;;1.42;;
76955;SDS011;65894;53.206;-6.108;2023-03-03T02:21:05;7.55;;;1.38;;
76955;SDS011;65894;53.206;-6.108;2023-03-03T02:23:46;6.20;;;1.08;;
76955;SDS011;65894;53.206;-6.108;2023-03-03T02:26:21;6.38;;;1.20;;
76955;SDS011;65894;53.206;-6.108;2023-03-03T02:28:52;11.65;;;1.38;;
76955;SDS011;65894;53.206;-6.108;2023-03-03T02:31:19;8.52;;;2.00;;
76955;SDS011;65894;53.206;-6.108;2023-03-03T02:33:48;7.55;;;1.30;;
76955;SDS011;65894;53.206;-6.108;2023-03-03T02:36:16;7.53;;;1.20;;
76955;SDS011;65894;53.206;-6.108;2023-03-03T02:43:51;6.65;;;1.23;;
76955;SDS011;65894;53.206;-6.108;2023-03-03T02:46:20;7.35;;;1.40;;
76955;SDS011;65894;53.206;-6.108;2023-03-03T02:48:46;5.70;;;1.20;;
76955;SDS011;65894;53.206;-6.108;2023-03-03T02:51:12;8.63;;;1.20;;
76955;SDS011;65894;53.206;-6.108;2023-03-03T02:53:38;7.35;;;1.80;;
76955;SDS011;65894;53.206;-6.108;2023-03-03T02:56:03;4.53;;;1.20;;
76955;SDS011;65894;53.206;-6.108;2023-03-03T02:58:29;6.40;;;2.28;;
76955;SDS011;65894;53.206;-6.108;2023-03-03T03:00:56;4.82;;;1.35;;
76955;SDS011;65894;53.206;-6.108;2023-03-03T03:03:22;4.53;;;1.45;;
76955;SDS011;65894;53.206;-6.108;2023-03-03T03:05:48;6.47;;;1.27;;
76955;SDS011;65894;53.206;-6.108;2023-03-03T03:08:14;8.15;;;1.20;;
76955;SDS011;65894;53.206;-6.108;2023-03-03T03:10:40;7.22;;;1.20;;
76955;SDS011;65894;53.206;-6.108;2023-03-03T03:13:06;6.95;;;1.27;;
76955;SDS011;65894;53.206;-6.108;2023-03-03T03:15:31;3.83;;;1.08;;
76955;SDS011;65894;53.206;-6.108;2023-03-03T03:17:59;7.78;;;1.40;;
76955;SDS011;65894;53.206;-6.108;2023-03-03T03:20:25;4.90;;;1.33;;
76955;SDS011;65894;53.206;-6.108;2023-03-03T03:22:51;4.95;;;1.15;;
76955;SDS011;65894;53.206;-6.108;2023-03-03T03:25:17;6.13;;;1.23;;
76955;SDS011;65894;53.206;-6.108;2023-03-03T03:27:42;6.35;;;1.10;;
76955;SDS011;65894;53.206;-6.108;2023-03-03T03:30:08;4.00;;;1.10;;
76955;SDS011;65894;53.206;-6.108;2023-03-03T03:32:34;4.07;;;1.00;;
76955;SDS011;65894;53.206;-6.108;2023-03-03T03:35:00;6.28;;;1.10;;
76955;SDS011;65894;53.206;-6.108;2023-03-03T03:37:25;3.72;;;1.10;;
76955;SDS011;65894;53.206;-6.108;2023-03-03T03:39:51;4.88;;;1.00;;
76955;SDS011;65894;53.206;-6.108;2023-03-03T03:42:18;2.47;;;0.75;;
76955;SDS011;65894;53.206;-6.108;2023-03-03T03:44:44;3.15;;;0.77;;
76955;SDS011;65894;53.206;-6.108;2023-03-03T03:47:09;3.72;;;1.05;;
76955;SDS011;65894;53.206;-6.108;2023-03-03T03:49:35;5.72;;;0.88;;
76955;SDS011;65894;53.206;-6.108;2023-03-03T03:52:01;4.20;;;0.80;;
76955;SDS011;65894;53.206;-6.108;2023-03-03T03:54:29;4.03;;;0.77;;
76955;SDS011;65894;53.206;-6.108;2023-03-03T03:56:55;5.03;;;1.00;;
76955;SDS011;65894;53.206;-6.108;2023-03-03T03:59:21;3.40;;;0.82;;
76955;SDS011;65894;53.206;-6.108;2023-03-03T04:01:47;2.60;;;0.85;;
76955;SDS011;65894;53.206;-6.108;2023-03-03T04:04:14;4.88;;;1.10;;
76955;SDS011;65894;53.206;-6.108;2023-03-03T04:06:41;3.33;;;0.82;;
76955;SDS011;65894;53.206;-6.108;2023-03-03T04:09:06;2.83;;;0.80;;
76955;SDS011;65894;53.206;-6.108;2023-03-03T04:11:32;4.15;;;0.90;;
76955;SDS011;65894;53.206;-6.108;2023-03-03T04:13:58;2.00;;;0.80;;
76955;SDS011;65894;53.206;-6.108;2023-03-03T04:16:24;3.75;;;1.17;;
76955;SDS011;65894;53.206;-6.108;2023-03-03T04:18:50;3.03;;;0.70;;
76955;SDS011;65894;53.206;-6.108;2023-03-03T04:21:16;2.08;;;0.73;;
76955;SDS011;65894;53.206;-6.108;2023-03-03T04:23:43;3.05;;;0.80;;
76955;SDS011;65894;53.206;-6.108;2023-03-03T04:26:09;3.17;;;0.95;;
76955;SDS011;65894;53.206;-6.108;2023-03-03T04:28:35;2.90;;;0.68;;
76955;SDS011;65894;53.206;-6.108;2023-03-03T04:31:01;3.33;;;0.63;;
76955;SDS011;65894;53.206;-6.108;2023-03-03T04:33:29;2.17;;;0.85;;
76955;SDS011;65894;53.206;-6.108;2023-03-03T04:35:55;3.15;;;0.65;;
76955;SDS011;65894;53.206;-6.108;2023-03-03T04:38:20;1.65;;;0.60;;
76955;SDS011;65894;53.206;-6.108;2023-03-03T04:40:47;2.53;;;0.73;;
76955;SDS011;65894;53.206;-6.108;2023-03-03T04:43:15;4.85;;;0.80;;
76955;SDS011;65894;53.206;-6.108;2023-03-03T04:45:40;2.03;;;0.70;;
76955;SDS011;65894;53.206;-6.108;2023-03-03T04:48:07;3.42;;;0.90;;
76955;SDS011;65894;53.206;-6.108;2023-03-03T04:50:34;2.40;;;0.70;;
76955;SDS011;65894;53.206;-6.108;2023-03-03T04:52:59;2.30;;;0.60;;
76955;SDS011;65894;53.206;-6.108;2023-03-03T04:55:25;1.85;;;0.70;;
76955;SDS011;65894;53.206;-6.108;2023-03-03T04:57:51;2.75;;;0.63;;
76955;SDS011;65894;53.206;-6.108;2023-03-03T05:00:16;3.20;;;0.80;;
76955;SDS011;65894;53.206;-6.108;2023-03-03T05:02:42;1.85;;;0.73;;
76955;SDS011;65894;53.206;-6.108;2023-03-03T05:05:08;1.17;;;0.60;;
76955;SDS011;65894;53.206;-6.108;2023-03-03T05:07:34;2.03;;;0.52;;
76955;SDS011;65894;53.206;-6.108;2023-03-03T05:10:00;2.50;;;0.80;;
76955;SDS011;65894;53.206;-6.108;2023-03-03T05:12:25;1.88;;;0.60;;
76955;SDS011;65894;53.206;-6.108;2023-03-03T05:14:51;1.55;;;0.50;;
76955;SDS011;65894;53.206;-6.108;2023-03-03T05:17:16;1.33;;;0.47;;
76955;SDS011;65894;53.206;-6.108;2023-03-03T05:19:42;1.25;;;0.60;;
76955;SDS011;65894;53.206;-6.108;2023-03-03T05:22:08;2.20;;;0.60;;
76955;SDS011;65894;53.206;-6.108;2023-03-03T05:24:34;1.80;;;0.70;;
76955;SDS011;65894;53.206;-6.108;2023-03-03T05:27:00;3.00;;;0.75;;
76955;SDS011;65894;53.206;-6.108;2023-03-03T05:29:27;2.92;;;0.68;;
76955;SDS011;65894;53.206;-6.108;2023-03-03T05:31:56;1.70;;;0.63;;
76955;SDS011;65894;53.206;-6.108;2023-03-03T05:34:22;2.10;;;0.75;;
76955;SDS011;65894;53.206;-6.108;2023-03-03T05:36:47;1.17;;;0.40;;
76955;SDS011;65894;53.206;-6.108;2023-03-03T05:39:13;1.55;;;0.85;;
76955;SDS011;65894;53.206;-6.108;2023-03-03T05:41:38;1.17;;;0.60;;
76955;SDS011;65894;53.206;-6.108;2023-03-03T05:44:04;2.10;;;0.65;;
76955;SDS011;65894;53.206;-6.108;2023-03-03T05:46:30;2.80;;;0.52;;
76955;SDS011;65894;53.206;-6.108;2023-03-03T05:48:55;1.25;;;0.50;;
76955;SDS011;65894;53.206;-6.108;2023-03-03T05:51:21;1.77;;;0.63;;
76955;SDS011;65894;53.206;-6.108;2023-03-03T05:53:46;0.95;;;0.35;;
76955;SDS011;65894;53.206;-6.108;2023-03-03T05:56:12;1.73;;;0.40;;
76955;SDS011;65894;53.206;-6.108;2023-03-03T05:58:38;1.92;;;0.50;;
76955;SDS011;65894;53.206;-6.108;2023-03-03T06:01:04;2.72;;;0.70;;
76955;SDS011;65894;53.206;-6.108;2023-03-03T06:03:29;2.35;;;0.65;;
76955;SDS011;65894;53.206;-6.108;2023-03-03T06:05:56;1.35;;;0.43;;
76955;SDS011;65894;53.206;-6.108;2023-03-03T06:08:21;1.20;;;0.50;;
76955;SDS011;65894;53.206;-6.108;2023-03-03T06:10:47;1.45;;;0.57;;
76955;SDS011;65894;53.206;-6.108;2023-03-03T06:13:13;1.15;;;0.60;;
76955;SDS011;65894;53.206;-6.108;2023-03-03T06:15:39;2.13;;;0.70;;
76955;SDS011;65894;53.206;-6.108;2023-03-03T06:18:04;2.03;;;0.65;;
76955;SDS011;65894;53.206;-6.108;2023-03-03T06:20:30;0.73;;;0.40;;
76955;SDS011;65894;53.206;-6.108;2023-03-03T06:22:57;0.82;;;0.50;;
76955;SDS011;65894;53.206;-6.108;2023-03-03T06:25:23;1.75;;;0.52;;
76955;SDS011;65894;53.206;-6.108;2023-03-03T06:27:48;0.70;;;0.50;;
76955;SDS011;65894;53.206;-6.108;2023-03-03T06:30:14;2.05;;;0.50;;
76955;SDS011;65894;53.206;-6.108;2023-03-03T06:32:40;1.52;;;0.60;;
76955;SDS011;65894;53.206;-6.108;2023-03-03T06:35:05;2.40;;;0.82;;
76955;SDS011;65894;53.206;-6.108;2023-03-03T06:37:31;1.17;;;0.47;;
76955;SDS011;65894;53.206;-6.108;2023-03-03T06:39:57;1.85;;;0.60;;
76955;SDS011;65894;53.206;-6.108;2023-03-03T06:42:22;1.55;;;0.60;;
76955;SDS011;65894;53.206;-6.108;2023-03-03T06:44:49;1.10;;;0.35;;
76955;SDS011;65894;53.206;-6.108;2023-03-03T06:47:14;0.95;;;0.50;;
76955;SDS011;65894;53.206;-6.108;2023-03-03T06:49:40;2.08;;;0.50;;
76955;SDS011;65894;53.206;-6.108;2023-03-03T06:52:11;2.22;;;0.60;;
76955;SDS011;65894;53.206;-6.108;2023-03-03T06:54:38;0.70;;;0.40;;
76955;SDS011;65894;53.206;-6.108;2023-03-03T06:57:15;1.48;;;0.55;;
76955;SDS011;65894;53.206;-6.108;2023-03-03T06:59:41;0.90;;;0.40;;
76955;SDS011;65894;53.206;-6.108;2023-03-03T07:02:13;1.00;;;0.40;;
76955;SDS011;65894;53.206;-6.108;2023-03-03T07:04:41;0.90;;;0.40;;
76955;SDS011;65894;53.206;-6.108;2023-03-03T07:07:14;1.17;;;0.40;;
76955;SDS011;65894;53.206;-6.108;2023-03-03T07:09:43;1.33;;;0.50;;
76955;SDS011;65894;53.206;-6.108;2023-03-03T07:12:11;0.98;;;0.35;;
76955;SDS011;65894;53.206;-6.108;2023-03-03T07:14:43;1.88;;;0.52;;
76955;SDS011;65894;53.206;-6.108;2023-03-03T07:17:14;1.00;;;0.40;;
76955;SDS011;65894;53.206;-6.108;2023-03-03T07:19:42;2.22;;;0.60;;
76955;SDS011;65894;53.206;-6.108;2023-03-03T07:22:14;1.63;;;0.40;;
76955;SDS011;65894;53.206;-6.108;2023-03-03T07:24:39;2.00;;;0.47;;
76955;SDS011;65894;53.206;-6.108;2023-03-03T07:32:19;2.03;;;0.50;;
76955;SDS011;65894;53.206;-6.108;2023-03-03T07:34:47;0.30;;;0.30;;
76955;SDS011;65894;53.206;-6.108;2023-03-03T07:37:18;1.58;;;0.50;;
76955;SDS011;65894;53.206;-6.108;2023-03-03T07:39:53;0.85;;;0.30;;
76955;SDS011;65894;53.206;-6.108;2023-03-03T07:44:58;1.88;;;0.52;;
76955;SDS011;65894;53.206;-6.108;2023-03-03T07:49:52;1.15;;;0.40;;
76955;SDS011;65894;53.206;-6.108;2023-03-03T07:54:51;0.95;;;0.50;;
76955;SDS011;65894;53.206;-6.108;2023-03-03T07:57:23;1.35;;;0.50;;
76955;SDS011;65894;53.206;-6.108;2023-03-03T08:00:00;1.05;;;0.43;;
76955;SDS011;65894;53.206;-6.108;2023-03-03T08:02:48;1.05;;;0.50;;
76955;SDS011;65894;53.206;-6.108;2023-03-03T08:13:21;5.30;;;0.90;;
76955;SDS011;65894;53.206;-6.108;2023-03-03T08:15:49;3.15;;;0.65;;
76955;SDS011;65894;53.206;-6.108;2023-03-03T08:18:18;2.78;;;0.70;;
76955;SDS011;65894;53.206;-6.108;2023-03-03T08:20:48;2.05;;;0.60;;
76955;SDS011;65894;53.206;-6.108;2023-03-03T08:23:16;2.15;;;0.73;;
76955;SDS011;65894;53.206;-6.108;2023-03-03T08:25:42;2.35;;;0.60;;
76955;SDS011;65894;53.206;-6.108;2023-03-03T08:28:09;1.60;;;0.43;;
76955;SDS011;65894;53.206;-6.108;2023-03-03T08:30:36;2.60;;;0.60;;
76955;SDS011;65894;53.206;-6.108;2023-03-03T08:33:02;1.23;;;0.57;;
76955;SDS011;65894;53.206;-6.108;2023-03-03T08:35:28;1.52;;;0.70;;
76955;SDS011;65894;53.206;-6.108;2023-03-03T08:37:54;5.10;;;0.90;;
76955;SDS011;65894;53.206;-6.108;2023-03-03T08:40:19;1.75;;;0.70;;
76955;SDS011;65894;53.206;-6.108;2023-03-03T08:42:45;3.30;;;0.68;;
76955;SDS011;65894;53.206;-6.108;2023-03-03T08:45:10;3.25;;;0.90;;
76955;SDS011;65894;53.206;-6.108;2023-03-03T08:47:36;6.90;;;1.02;;
76955;SDS011;65894;53.206;-6.108;2023-03-03T08:50:03;9.02;;;1.45;;
76955;SDS011;65894;53.206;-6.108;2023-03-03T08:52:29;8.05;;;1.63;;
76955;SDS011;65894;53.206;-6.108;2023-03-03T08:54:55;12.48;;;1.30;;
76955;SDS011;65894;53.206;-6.108;2023-03-03T08:57:20;6.65;;;1.35;;
76955;SDS011;65894;53.206;-6.108;2023-03-03T08:59:46;6.78;;;1.27;;
76955;SDS011;65894;53.206;-6.108;2023-03-03T09:02:11;4.82;;;1.35;;
76955;SDS011;65894;53.206;-6.108;2023-03-03T09:04:37;8.40;;;1.40;;
76955;SDS011;65894;53.206;-6.108;2023-03-03T09:07:03;8.05;;;1.27;;
76955;SDS011;65894;53.206;-6.108;2023-03-03T09:09:28;4.53;;;1.00;;
76955;SDS011;65894;53.206;-6.108;2023-03-03T09:11:58;10.02;;;1.42;;
76955;SDS011;65894;53.206;-6.108;2023-03-03T09:14:37;7.78;;;1.38;;
76955;SDS011;65894;53.206;-6.108;2023-03-03T09:17:07;5.32;;;1.10;;
76955;SDS011;65894;53.206;-6.108;2023-03-03T09:19:56;9.45;;;1.30;;
76955;SDS011;65894;53.206;-6.108;2023-03-03T09:22:24;7.85;;;1.10;;
76955;SDS011;65894;53.206;-6.108;2023-03-03T09:24:52;5.82;;;1.30;;
76955;SDS011;65894;53.206;-6.108;2023-03-03T09:27:26;5.20;;;1.17;;
76955;SDS011;65894;53.206;-6.108;2023-03-03T09:29:54;6.35;;;1.30;;
76955;SDS011;65894;53.206;-6.108;2023-03-03T09:34:56;5.10;;;0.95;;
76955;SDS011;65894;53.206;-6.108;2023-03-03T09:37:23;4.80;;;0.93;;
76955;SDS011;65894;53.206;-6.108;2023-03-03T09:39:56;2.78;;;1.00;;
76955;SDS011;65894;53.206;-6.108;2023-03-03T09:54:03;4.38;;;1.08;;
76955;SDS011;65894;53.206;-6.108;2023-03-03T09:56:48;5.55;;;1.23;;
76955;SDS011;65894;53.206;-6.108;2023-03-03T10:05:29;3.28;;;0.88;;
76955;SDS011;65894;53.206;-6.108;2023-03-03T10:18:51;4.13;;;1.08;;
76955;SDS011;65894;53.206;-6.108;2023-03-03T10:21:23;5.93;;;1.00;;
76955;SDS011;65894;53.206;-6.108;2023-03-03T10:23:55;3.63;;;1.15;;
76955;SDS011;65894;53.206;-6.108;2023-03-03T10:29:21;5.15;;;1.30;;
76955;SDS011;65894;53.206;-6.108;2023-03-03T10:31:57;2.78;;;0.98;;
76955;SDS011;65894;53.206;-6.108;2023-03-03T10:45:53;4.85;;;0.98;;
76955;SDS011;65894;53.206;-6.108;2023-03-03T10:57:30;4.93;;;1.10;;
76955;SDS011;65894;53.206;-6.108;2023-03-03T11:08:19;7.65;;;1.30;;
76955;SDS011;65894;53.206;-6.108;2023-03-03T11:16:13;4.35;;;0.80;;
76955;SDS011;65894;53.206;-6.108;2023-03-03T11:32:10;4.72;;;1.08;;
76955;SDS011;65894;53.206;-6.108;2023-03-03T11:34:52;4.22;;;1.00;;
76955;SDS011;65894;53.206;-6.108;2023-03-03T11:37:26;3.47;;;1.00;;
76955;SDS011;65894;53.206;-6.108;2023-03-03T11:40:14;3.80;;;0.80;;
76955;SDS011;65894;53.206;-6.108;2023-03-03T11:55:51;3.30;;;0.90;;
76955;SDS011;65894;53.206;-6.108;2023-03-03T11:58:35;3.13;;;0.90;;
76955;SDS011;65894;53.206;-6.108;2023-03-03T12:01:22;2.30;;;0.80;;
76955;SDS011;65894;53.206;-6.108;2023-03-03T12:04:18;4.28;;;0.95;;
76955;SDS011;65894;53.206;-6.108;2023-03-03T12:17:18;4.90;;;1.40;;
76955;SDS011;65894;53.206;-6.108;2023-03-03T12:25:17;6.50;;;0.98;;
76955;SDS011;65894;53.206;-6.108;2023-03-03T12:49:27;5.43;;;1.13;;
76955;SDS011;65894;53.206;-6.108;2023-03-03T12:54:56;13.07;;;2.80;;
76955;SDS011;65894;53.206;-6.108;2023-03-03T13:03:00;22.10;;;2.50;;
76955;SDS011;65894;53.206;-6.108;2023-03-03T13:05:54;26.08;;;2.55;;
76955;SDS011;65894;53.206;-6.108;2023-03-03T13:08:29;16.98;;;2.60;;
76955;SDS011;65894;53.206;-6.108;2023-03-03T13:20:07;12.50;;;1.65;;
76955;SDS011;65894;53.206;-6.108;2023-03-03T13:22:50;15.52;;;1.80;;
76955;SDS011;65894;53.206;-6.108;2023-03-03T13:31:20;9.65;;;1.70;;
76955;SDS011;65894;53.206;-6.108;2023-03-03T13:33:51;8.05;;;1.70;;
76955;SDS011;65894;53.206;-6.108;2023-03-03T13:36:19;11.10;;;1.67;;
76955;SDS011;65894;53.206;-6.108;2023-03-03T13:38:51;9.90;;;1.70;;
76955;SDS011;65894;53.206;-6.108;2023-03-03T13:44:08;8.57;;;1.58;;
76955;SDS011;65894;53.206;-6.108;2023-03-03T13:52:57;8.63;;;1.45;;
76955;SDS011;65894;53.206;-6.108;2023-03-03T13:55:32;6.43;;;1.80;;
76955;SDS011;65894;53.206;-6.108;2023-03-03T13:58:23;8.68;;;1.50;;
76955;SDS011;65894;53.206;-6.108;2023-03-03T14:01:03;8.23;;;1.75;;
76955;SDS011;65894;53.206;-6.108;2023-03-03T14:06:17;5.00;;;1.15;;
76955;SDS011;65894;53.206;-6.108;2023-03-03T14:11:56;9.80;;;1.55;;
76955;SDS011;65894;53.206;-6.108;2023-03-03T14:14:49;8.00;;;1.23;;
76955;SDS011;65894;53.206;-6.108;2023-03-03T14:22:58;4.07;;;0.85;;
76955;SDS011;65894;53.206;-6.108;2023-03-03T14:25:26;5.40;;;1.08;;
76955;SDS011;65894;53.206;-6.108;2023-03-03T14:28:12;8.48;;;1.27;;
76955;SDS011;65894;53.206;-6.108;2023-03-03T14:30:40;4.80;;;1.15;;
76955;SDS011;65894;53.206;-6.108;2023-03-03T14:38:00;2.72;;;0.93;;
76955;SDS011;65894;53.206;-6.108;2023-03-03T14:40:32;3.78;;;0.90;;
76955;SDS011;65894;53.206;-6.108;2023-03-03T14:43:00;5.90;;;1.38;;
76955;SDS011;65894;53.206;-6.108;2023-03-03T14:45:40;7.80;;;1.40;;
76955;SDS011;65894;53.206;-6.108;2023-03-03T14:53:51;6.20;;;0.95;;
76955;SDS011;65894;53.206;-6.108;2023-03-03T14:56:24;3.47;;;0.90;;
76955;SDS011;65894;53.206;-6.108;2023-03-03T14:58:53;5.95;;;1.05;;
76955;SDS011;65894;53.206;-6.108;2023-03-03T15:01:34;4.28;;;0.80;;
76955;SDS011;65894;53.206;-6.108;2023-03-03T15:04:01;8.23;;;1.48;;
76955;SDS011;65894;53.206;-6.108;2023-03-03T15:06:30;4.25;;;1.30;;
76955;SDS011;65894;53.206;-6.108;2023-03-03T15:11:50;7.15;;;1.10;;
76955;SDS011;65894;53.206;-6.108;2023-03-03T15:14:18;3.95;;;1.23;;
76955;SDS011;65894;53.206;-6.108;2023-03-03T15:16:45;21.45;;;1.83;;
76955;SDS011;65894;53.206;-6.108;2023-03-03T15:24:40;46.08;;;3.38;;
76955;SDS011;65894;53.206;-6.108;2023-03-03T15:32:37;24.15;;;2.58;;
76955;SDS011;65894;53.206;-6.108;2023-03-03T15:35:18;32.05;;;2.60;;
76955;SDS011;65894;53.206;-6.108;2023-03-03T15:40:38;28.10;;;2.30;;
76955;SDS011;65894;53.206;-6.108;2023-03-03T16:05:06;18.80;;;1.85;;
76955;SDS011;65894;53.206;-6.108;2023-03-03T16:13:44;12.88;;;2.03;;
76955;SDS011;65894;53.206;-6.108;2023-03-03T16:33:03;11.35;;;1.60;;
76955;SDS011;65894;53.206;-6.108;2023-03-03T16:35:41;14.38;;;1.45;;
76955;SDS011;65894;53.206;-6.108;2023-03-03T16:38:13;8.27;;;1.02;;
76955;SDS011;65894;53.206;-6.108;2023-03-03T16:40:52;11.23;;;1.42;;
76955;SDS011;65894;53.206;-6.108;2023-03-03T16:45:57;7.47;;;1.00;;
76955;SDS011;65894;53.206;-6.108;2023-03-03T16:51:07;7.45;;;1.10;;
76955;SDS011;65894;53.206;-6.108;2023-03-03T16:56:51;6.03;;;1.02;;
76955;SDS011;65894;53.206;-6.108;2023-03-03T16:59:26;8.70;;;1.42;;
76955;SDS011;65894;53.206;-6.108;2023-03-03T17:02:11;6.78;;;1.55;;
76955;SDS011;65894;53.206;-6.108;2023-03-03T17:04:44;7.65;;;1.52;;
76955;SDS011;65894;53.206;-6.108;2023-03-03T17:07:14;3.15;;;0.93;;
76955;SDS011;65894;53.206;-6.108;2023-03-03T17:21:00;3.42;;;0.80;;
76955;SDS011;65894;53.206;-6.108;2023-03-03T17:23:34;3.85;;;0.80;;
76955;SDS011;65894;53.206;-6.108;2023-03-03T17:41:53;5.10;;;0.93;;
76955;SDS011;65894;53.206;-6.108;2023-03-03T17:56:46;4.22;;;1.20;;
76955;SDS011;65894;53.206;-6.108;2023-03-03T18:11:49;5.20;;;0.90;;
76955;SDS011;65894;53.206;-6.108;2023-03-03T18:14:32;4.55;;;1.10;;
76955;SDS011;65894;53.206;-6.108;2023-03-03T18:22:53;3.33;;;0.88;;
76955;SDS011;65894;53.206;-6.108;2023-03-03T18:25:20;5.38;;;1.00;;
76955;SDS011;65894;53.206;-6.108;2023-03-03T18:33:12;6.25;;;1.05;;
76955;SDS011;65894;53.206;-6.108;2023-03-03T18:35:39;5.35;;;1.10;;
76955;SDS011;65894;53.206;-6.108;2023-03-03T18:46:43;4.07;;;0.90;;
76955;SDS011;65894;53.206;-6.108;2023-03-03T18:56:49;6.80;;;1.23;;
76955;SDS011;65894;53.206;-6.108;2023-03-03T19:04:42;3.15;;;1.00;;
76955;SDS011;65894;53.206;-6.108;2023-03-03T19:10:05;2.63;;;0.80;;
76955;SDS011;65894;53.206;-6.108;2023-03-03T19:12:52;3.15;;;0.90;;
76955;SDS011;65894;53.206;-6.108;2023-03-03T19:23:18;38.63;;;6.50;;
76955;SDS011;65894;53.206;-6.108;2023-03-03T19:26:14;34.65;;;5.93;;
76955;SDS011;65894;53.206;-6.108;2023-03-03T19:31:42;30.10;;;5.85;;
76955;SDS011;65894;53.206;-6.108;2023-03-03T19:34:22;31.08;;;5.60;;
76955;SDS011;65894;53.206;-6.108;2023-03-03T19:45:15;29.02;;;4.38;;
76955;SDS011;65894;53.206;-6.108;2023-03-03T19:50:31;19.38;;;3.95;;
76955;SDS011;65894;53.206;-6.108;2023-03-03T20:07:52;12.63;;;3.15;;
76955;SDS011;65894;53.206;-6.108;2023-03-03T20:21:03;9.43;;;2.10;;
76955;SDS011;65894;53.206;-6.108;2023-03-03T20:26:53;8.05;;;1.55;;
76955;SDS011;65894;53.206;-6.108;2023-03-03T20:29:19;6.38;;;1.58;;
76955;SDS011;65894;53.206;-6.108;2023-03-03T20:34:49;7.95;;;1.80;;
76955;SDS011;65894;53.206;-6.108;2023-03-03T20:37:45;8.50;;;1.52;;
76955;SDS011;65894;53.206;-6.108;2023-03-03T20:40:58;7.22;;;1.73;;
76955;SDS011;65894;53.206;-6.108;2023-03-03T20:46:16;5.82;;;1.30;;
76955;SDS011;65894;53.206;-6.108;2023-03-03T20:48:52;9.13;;;1.55;;
76955;SDS011;65894;53.206;-6.108;2023-03-03T20:54:05;9.32;;;1.90;;
76955;SDS011;65894;53.206;-6.108;2023-03-03T20:56:35;7.20;;;1.40;;
76955;SDS011;65894;53.206;-6.108;2023-03-03T21:06:48;6.80;;;1.48;;
76955;SDS011;65894;53.206;-6.108;2023-03-03T21:09:27;5.00;;;1.30;;
76955;SDS011;65894;53.206;-6.108;2023-03-03T21:12:09;6.70;;;1.33;;
76955;SDS011;65894;53.206;-6.108;2023-03-03T21:15:02;6.35;;;1.80;;
76955;SDS011;65894;53.206;-6.108;2023-03-03T21:17:31;4.40;;;1.30;;
76955;SDS011;65894;53.206;-6.108;2023-03-03T21:23:01;5.68;;;1.30;;
76955;SDS011;65894;53.206;-6.108;2023-03-03T21:28:40;4.78;;;1.35;;
76955;SDS011;65894;53.206;-6.108;2023-03-03T21:30:59;4.93;;;1.77;;
76955;SDS011;65894;53.206;-6.108;2023-03-03T21:36:05;3.83;;;1.13;;
76955;SDS011;65894;53.206;-6.108;2023-03-03T21:38:31;4.95;;;1.20;;
76955;SDS011;65894;53.206;-6.108;2023-03-03T21:41:01;3.88;;;1.15;;
76955;SDS011;65894;53.206;-6.108;2023-03-03T21:43:31;5.45;;;1.00;;
76955;SDS011;65894;53.206;-6.108;2023-03-03T21:45:58;5.38;;;1.15;;
76955;SDS011;65894;53.206;-6.108;2023-03-03T21:48:23;4.85;;;1.30;;
76955;SDS011;65894;53.206;-6.108;2023-03-03T21:50:49;3.08;;;0.90;;
76955;SDS011;65894;53.206;-6.108;2023-03-03T21:53:14;3.85;;;1.35;;
76955;SDS011;65894;53.206;-6.108;2023-03-03T21:55:40;5.20;;;1.30;;
76955;SDS011;65894;53.206;-6.108;2023-03-03T21:58:12;6.20;;;1.13;;
76955;SDS011;65894;53.206;-6.108;2023-03-03T22:00:38;4.68;;;1.05;;
76955;SDS011;65894;53.206;-6.108;2023-03-03T22:03:04;3.60;;;1.15;;
76955;SDS011;65894;53.206;-6.108;2023-03-03T22:05:29;4.63;;;1.13;;
76955;SDS011;65894;53.206;-6.108;2023-03-03T22:07:55;5.07;;;1.20;;
76955;SDS011;65894;53.206;-6.108;2023-03-03T22:10:20;4.45;;;1.20;;
76955;SDS011;65894;53.206;-6.108;2023-03-03T22:12:46;2.28;;;0.95;;
76955;SDS011;65894;53.206;-6.108;2023-03-03T22:15:11;4.03;;;0.93;;
76955;SDS011;65894;53.206;-6.108;2023-03-03T22:17:37;3.70;;;1.00;;
76955;SDS011;65894;53.206;-6.108;2023-03-03T22:20:04;3.17;;;1.00;;
76955;SDS011;65894;53.206;-6.108;2023-03-03T22:22:31;2.30;;;0.85;;
76955;SDS011;65894;53.206;-6.108;2023-03-03T22:24:56;3.22;;;0.90;;
76955;SDS011;65894;53.206;-6.108;2023-03-03T22:27:22;2.53;;;0.80;;
76955;SDS011;65894;53.206;-6.108;2023-03-03T22:29:47;3.40;;;1.10;;
76955;SDS011;65894;53.206;-6.108;2023-03-03T22:32:13;2.65;;;1.00;;
76955;SDS011;65894;53.206;-6.108;2023-03-03T22:34:38;3.33;;;1.30;;